Time;durP1;ratioP1;P1;durP2;ratioP2;P2;SDS_P1;SDS_P2;PMS_P1;PMS_P2;Temp;Humidity;BMP_temperature;BMP_pressure;BME280_temperature;BME280_humidity;BME280_pressure;Samples;Min_cycle;Max_cycle;Signal;HPM_P1;HPM_P2
2023/03/31 00:02:14;;;;;;;16.30;6.77;;;8.80;66.80;;;;;;5026095;28;46365;-70
2023/03/31 00:04:44;;;;;;;17.27;6.20;;;8.80;66.90;;;;;;5026310;28;46456;-70
2023/03/31 00:07:12;;;;;;;13.67;5.80;;;8.80;67.00;;;;;;5026627;28;46361;-70
2023/03/31 00:09:39;;;;;;;11.60;6.80;;;8.80;67.10;;;;;;5024282;28;46488;-71
2023/03/31 00:12:05;;;;;;;11.30;5.87;;;8.70;67.20;;;;;;5027192;28;46562;-71
2023/03/31 00:14:31;;;;;;;11.30;6.10;;;8.70;67.20;;;;;;5030620;28;45907;-70
2023/03/31 00:16:57;;;;;;;11.73;5.97;;;8.60;67.40;;;;;;5026163;28;46427;-70
2023/03/31 00:19:23;;;;;;;17.73;6.00;;;8.50;67.60;;;;;;5028575;28;46236;-70
2023/03/31 00:21:50;;;;;;;9.10;5.40;;;8.50;68.00;;;;;;5027958;28;46493;-70
2023/03/31 00:24:16;;;;;;;11.00;5.90;;;8.40;68.20;;;;;;5029473;28;46447;-71
2023/03/31 00:26:43;;;;;;;11.80;5.47;;;8.40;68.20;;;;;;5027689;28;46457;-71
2023/03/31 00:29:10;;;;;;;15.73;5.77;;;8.50;68.00;;;;;;5029380;28;46418;-70
2023/03/31 00:31:37;;;;;;;11.40;5.90;;;8.60;67.50;;;;;;5036287;28;46456;-71
2023/03/31 00:34:03;;;;;;;12.13;5.50;;;8.80;67.00;;;;;;5029752;28;47351;-71
2023/03/31 00:36:29;;;;;;;12.63;5.27;;;8.90;66.50;;;;;;5028814;28;46332;-70
2023/03/31 00:38:58;;;;;;;13.13;7.03;;;9.00;66.20;;;;;;5030547;28;46112;-70
2023/03/31 00:41:25;;;;;;;10.50;5.80;;;9.10;66.00;;;;;;5025186;28;46383;-71
2023/03/31 00:44:17;;;;;;;16.77;6.03;;;9.10;65.80;;;;;;5025170;28;47272;-68
2023/03/31 00:46:57;;;;;;;13.13;6.10;;;9.10;65.90;;;;;;5028654;28;46662;-71
2023/03/31 00:49:34;;;;;;;12.00;6.00;;;9.20;66.00;;;;;;5029897;28;46438;-69
2023/03/31 00:52:06;;;;;;;12.83;5.57;;;9.20;65.80;;;;;;5029527;28;46506;-71
2023/03/31 00:54:33;;;;;;;10.67;5.63;;;9.10;65.90;;;;;;5029759;28;47323;-71
2023/03/31 00:57:02;;;;;;;12.10;5.73;;;9.00;66.50;;;;;;5026152;28;46443;-70
2023/03/31 00:59:30;;;;;;;12.73;5.00;;;8.90;67.00;;;;;;5027224;28;46484;-70
2023/03/31 01:02:01;;;;;;;20.53;5.23;;;8.80;67.50;;;;;;5023760;28;46384;-70
2023/03/31 01:04:29;;;;;;;12.53;6.70;;;8.70;67.60;;;;;;5025420;28;48315;-70
2023/03/31 01:07:08;;;;;;;17.83;6.37;;;8.80;67.70;;;;;;5025632;28;46323;-71
2023/03/31 01:09:37;;;;;;;18.17;5.80;;;8.80;67.30;;;;;;5027716;28;46477;-70
2023/03/31 01:12:06;;;;;;;8.53;5.10;;;8.90;67.20;;;;;;5025776;28;46569;-71
2023/03/31 01:14:32;;;;;;;8.63;4.37;;;8.90;67.10;;;;;;5027738;28;47164;-70
2023/03/31 01:16:57;;;;;;;10.27;4.93;;;8.90;67.00;;;;;;5029592;28;46235;-70
2023/03/31 01:19:40;;;;;;;14.73;6.00;;;9.00;67.00;;;;;;5029328;28;45846;-70
2023/03/31 01:22:28;;;;;;;13.10;5.50;;;9.00;67.80;;;;;;5030180;28;46473;-70
2023/03/31 01:25:18;;;;;;;17.43;5.03;;;9.10;66.40;;;;;;5030495;28;47243;-70
2023/03/31 01:28:00;;;;;;;13.13;5.57;;;9.10;66.30;;;;;;5029664;28;46616;-70
2023/03/31 01:30:57;;;;;;;11.73;5.50;;;9.20;66.40;;;;;;5031582;28;46613;-70
2023/03/31 01:33:57;;;;;;;12.47;5.20;;;9.20;66.10;;;;;;5036086;28;46462;-70
2023/03/31 01:37:00;;;;;;;11.97;6.07;;;9.40;65.90;;;;;;5032452;28;46692;-70
2023/03/31 01:39:57;;;;;;;16.20;5.60;;;9.50;65.20;;;;;;5029608;28;46354;-70
2023/03/31 01:42:34;;;;;;;13.53;5.57;;;9.60;65.10;;;;;;5030239;28;46476;-70
2023/03/31 01:45:02;;;;;;;12.60;5.80;;;9.60;65.10;;;;;;5029358;28;46571;-70
2023/03/31 01:47:39;;;;;;;9.50;5.60;;;9.60;65.10;;;;;;5031195;28;47283;-70
2023/03/31 01:50:17;;;;;;;11.63;5.13;;;9.70;65.20;;;;;;5030408;28;46322;-71
2023/03/31 01:52:54;;;;;;;11.67;5.17;;;9.70;65.10;;;;;;5026309;28;46266;-71
2023/03/31 01:55:25;;;;;;;9.27;4.43;;;9.70;65.20;;;;;;5030097;28;46026;-71
2023/03/31 01:58:01;;;;;;;13.00;5.40;;;9.70;65.20;;;;;;5031136;28;47138;-70
2023/03/31 02:00:32;;;;;;;11.87;5.30;;;9.70;65.10;;;;;;5027180;28;46347;-71
2023/03/31 02:03:15;;;;;;;12.27;5.60;;;9.70;65.20;;;;;;5027528;28;45925;-70
2023/03/31 02:05:46;;;;;;;13.00;5.03;;;9.70;65.20;;;;;;5026199;28;46311;-70
2023/03/31 02:08:22;;;;;;;11.77;4.93;;;9.80;65.20;;;;;;5029649;28;46624;-70
2023/03/31 02:10:49;;;;;;;11.93;5.50;;;9.80;65.10;;;;;;5031554;28;46254;-71
2023/03/31 02:13:16;;;;;;;9.67;5.23;;;9.90;64.90;;;;;;5033640;28;46507;-71
2023/03/31 02:15:47;;;;;;;11.00;5.40;;;9.90;64.60;;;;;;5030601;28;46385;-70
2023/03/31 02:18:17;;;;;;;9.87;4.80;;;10.00;63.40;;;;;;5028047;28;46575;-71
2023/03/31 02:20:46;;;;;;;9.53;5.50;;;10.10;63.10;;;;;;5027029;28;46478;-71
2023/03/31 02:23:14;;;;;;;11.80;5.20;;;10.10;62.70;;;;;;5034392;28;46362;-70
2023/03/31 02:25:54;;;;;;;9.13;5.00;;;10.20;62.50;;;;;;5029021;28;46408;-71
2023/03/31 02:28:24;;;;;;;9.70;4.80;;;10.30;62.40;;;;;;5029436;28;46333;-71
2023/03/31 02:31:09;;;;;;;9.63;5.23;;;10.30;62.20;;;;;;5028570;28;46467;-71
2023/03/31 02:33:34;;;;;;;11.47;6.23;;;10.40;62.10;;;;;;5029314;28;46445;-71
2023/03/31 02:36:01;;;;;;;13.80;5.37;;;10.40;61.90;;;;;;5030089;28;46647;-70
2023/03/31 02:38:30;;;;;;;16.07;5.10;;;10.40;62.00;;;;;;5027848;28;46625;-70
2023/03/31 02:40:56;;;;;;;13.97;5.47;;;10.50;62.10;;;;;;5030629;28;45954;-71
2023/03/31 02:43:21;;;;;;;17.10;5.60;;;10.50;61.90;;;;;;5029906;28;46622;-70
2023/03/31 02:45:49;;;;;;;18.20;5.10;;;10.50;62.10;;;;;;5026040;28;46617;-71
2023/03/31 02:48:36;;;;;;;10.27;4.57;;;10.50;62.10;;;;;;5033870;28;47382;-71
2023/03/31 02:51:18;;;;;;;8.70;3.73;;;10.50;61.90;;;;;;5029262;28;46455;-71
2023/03/31 02:54:15;;;;;;;13.60;5.23;;;10.60;62.00;;;;;;5029875;28;46686;-71
2023/03/31 02:57:00;;;;;;;13.97;4.80;;;10.50;62.20;;;;;;5030890;28;46291;-71
2023/03/31 02:59:43;;;;;;;15.23;4.23;;;10.40;62.90;;;;;;5027117;28;46128;-71
2023/03/31 03:02:24;;;;;;;18.80;5.57;;;10.30;63.60;;;;;;5027539;28;46286;-71
2023/03/31 03:05:33;;;;;;;12.63;4.40;;;10.30;63.60;;;;;;5029845;28;46343;-71
2023/03/31 03:08:36;;;;;;;13.33;5.03;;;10.30;63.50;;;;;;5028443;28;46424;-71
2023/03/31 03:11:10;;;;;;;11.37;5.20;;;10.40;63.40;;;;;;5019412;28;46764;-70
2023/03/31 03:13:46;;;;;;;15.87;4.90;;;10.40;63.20;;;;;;5027911;28;46450;-71
2023/03/31 03:16:26;;;;;;;12.23;4.73;;;10.30;63.50;;;;;;5029982;28;46297;-71
2023/03/31 03:19:04;;;;;;;13.27;4.60;;;10.30;63.70;;;;;;5032469;28;46470;-71
2023/03/31 03:21:30;;;;;;;11.10;5.27;;;10.20;64.20;;;;;;5028886;28;47231;-71
2023/03/31 03:23:56;;;;;;;9.70;5.47;;;10.30;64.70;;;;;;5027145;28;46508;-72
2023/03/31 03:26:22;;;;;;;12.30;4.93;;;10.20;64.60;;;;;;5024196;28;46276;-72
2023/03/31 03:28:49;;;;;;;8.33;5.07;;;10.30;64.10;;;;;;5026228;28;46507;-69
2023/03/31 03:31:15;;;;;;;15.30;6.07;;;10.30;64.00;;;;;;5026958;28;46480;-70
2023/03/31 03:33:41;;;;;;;18.43;5.90;;;10.30;64.10;;;;;;5027375;28;46490;-71
2023/03/31 03:36:07;;;;;;;14.77;5.47;;;10.30;64.10;;;;;;5029010;28;46412;-71
2023/03/31 03:38:33;;;;;;;12.17;5.30;;;10.30;64.10;;;;;;5030347;28;46272;-71
2023/03/31 03:40:59;;;;;;;12.57;5.30;;;10.30;64.10;;;;;;5030392;28;46437;-71
2023/03/31 03:43:25;;;;;;;13.80;5.03;;;10.30;64.20;;;;;;5030634;28;46517;-71
2023/03/31 03:45:51;;;;;;;11.70;5.40;;;10.30;64.10;;;;;;5026541;28;46416;-71
2023/03/31 03:48:17;;;;;;;13.13;5.73;;;10.30;64.20;;;;;;5029935;28;46706;-71
2023/03/31 03:50:45;;;;;;;14.33;5.60;;;10.30;64.20;;;;;;5028548;28;47254;-71
2023/03/31 03:53:11;;;;;;;18.70;5.97;;;10.30;64.00;;;;;;5027556;28;46366;-71
2023/03/31 03:55:37;;;;;;;13.10;5.30;;;10.40;63.90;;;;;;5028889;28;46279;-69
2023/03/31 03:58:02;;;;;;;9.07;5.67;;;10.40;63.80;;;;;;5028855;28;46327;-70
2023/03/31 04:00:28;;;;;;;14.43;6.07;;;10.40;63.90;;;;;;5027711;28;46326;-71
2023/03/31 04:02:54;;;;;;;10.87;5.90;;;10.30;63.70;;;;;;5028994;28;46456;-71
2023/03/31 04:05:19;;;;;;;17.47;6.10;;;10.30;64.10;;;;;;5031943;28;46292;-71
2023/03/31 04:07:45;;;;;;;16.60;6.57;;;10.20;64.10;;;;;;5022948;28;46541;-71
2023/03/31 04:10:10;;;;;;;12.70;5.60;;;10.20;64.60;;;;;;5027836;28;47208;-71
2023/03/31 04:12:36;;;;;;;13.90;5.53;;;10.20;64.60;;;;;;5028988;28;46569;-71
2023/03/31 04:15:02;;;;;;;12.77;5.80;;;10.10;64.50;;;;;;5027949;28;46418;-70
2023/03/31 04:17:36;;;;;;;17.67;6.90;;;10.10;64.50;;;;;;5028538;28;46346;-70
2023/03/31 04:20:10;;;;;;;20.00;7.10;;;10.10;64.60;;;;;;5032786;28;46720;-71
2023/03/31 04:22:39;;;;;;;13.60;6.30;;;10.10;64.50;;;;;;5034074;28;46375;-72
2023/03/31 04:25:16;;;;;;;15.77;6.07;;;10.00;65.40;;;;;;5027631;28;46468;-71
2023/03/31 04:27:49;;;;;;;13.63;6.63;;;10.00;65.80;;;;;;5025511;28;46367;-71
2023/03/31 04:30:22;;;;;;;16.00;6.33;;;10.00;66.00;;;;;;5029431;28;47988;-71
2023/03/31 04:32:49;;;;;;;12.63;6.50;;;9.90;67.30;;;;;;5023716;28;46402;-71
2023/03/31 04:35:19;;;;;;;10.97;6.00;;;9.90;67.60;;;;;;5030622;28;46437;-71
2023/03/31 04:37:46;;;;;;;19.47;7.20;;;9.90;67.80;;;;;;5029624;28;46485;-71
2023/03/31 04:40:12;;;;;;;12.47;6.40;;;9.90;67.90;;;;;;5027313;28;46542;-71
2023/03/31 04:42:38;;;;;;;21.80;7.57;;;9.90;68.00;;;;;;5026765;28;46412;-71
2023/03/31 04:45:04;;;;;;;10.07;6.27;;;9.90;68.20;;;;;;5028949;28;46725;-71
2023/03/31 04:47:30;;;;;;;16.20;7.20;;;9.80;68.40;;;;;;5027564;28;46584;-71
2023/03/31 04:49:55;;;;;;;13.77;7.20;;;9.80;68.70;;;;;;5027751;28;46775;-71
2023/03/31 04:52:21;;;;;;;11.83;6.60;;;9.80;69.00;;;;;;5027245;28;46367;-71
2023/03/31 04:54:47;;;;;;;13.30;6.93;;;9.80;68.90;;;;;;5029349;28;46407;-70
2023/03/31 04:57:12;;;;;;;17.33;7.17;;;9.90;68.90;;;;;;5027383;28;46570;-72
2023/03/31 04:59:38;;;;;;;11.63;6.63;;;9.90;69.10;;;;;;5034035;28;47658;-70
2023/03/31 05:02:03;;;;;;;14.77;6.37;;;9.90;69.10;;;;;;5029575;28;46328;-71
2023/03/31 05:04:29;;;;;;;12.77;6.03;;;9.90;69.40;;;;;;5027165;28;46493;-70
2023/03/31 05:06:55;;;;;;;18.90;7.20;;;9.90;69.60;;;;;;5025745;28;46440;-70
2023/03/31 05:09:21;;;;;;;20.20;7.77;;;9.80;69.70;;;;;;5030537;28;46492;-70
2023/03/31 05:11:46;;;;;;;24.50;9.63;;;9.80;69.50;;;;;;5029202;28;46526;-70
2023/03/31 05:14:12;;;;;;;25.13;8.60;;;9.80;69.70;;;;;;5030594;28;46398;-70
2023/03/31 05:16:38;;;;;;;13.63;6.20;;;9.90;69.70;;;;;;5025585;28;46397;-71
2023/03/31 05:19:03;;;;;;;21.17;8.87;;;9.90;69.60;;;;;;5030750;28;47340;-70
2023/03/31 05:21:30;;;;;;;23.80;8.10;;;9.80;69.90;;;;;;5027373;28;46390;-70
2023/03/31 05:23:56;;;;;;;12.03;7.40;;;9.70;70.90;;;;;;5033084;28;46389;-70
2023/03/31 05:26:24;;;;;;;15.23;6.90;;;9.50;72.00;;;;;;5029704;28;46488;-70
2023/03/31 05:28:50;;;;;;;18.73;6.67;;;9.50;73.00;;;;;;5030030;28;47113;-71
2023/03/31 05:31:17;;;;;;;13.20;6.17;;;9.40;73.60;;;;;;5031143;28;46270;-70
2023/03/31 05:33:43;;;;;;;12.17;7.17;;;9.40;74.10;;;;;;5031234;28;46501;-70
2023/03/31 05:36:10;;;;;;;14.57;6.13;;;9.40;74.10;;;;;;5028456;28;46432;-70
2023/03/31 05:38:35;;;;;;;13.07;6.97;;;9.40;74.50;;;;;;5030317;28;47257;-71
2023/03/31 05:41:01;;;;;;;12.40;6.17;;;9.50;74.60;;;;;;5028287;28;46303;-70
2023/03/31 05:43:27;;;;;;;11.33;6.33;;;9.60;74.60;;;;;;5030772;28;46413;-71
2023/03/31 05:45:52;;;;;;;16.03;6.57;;;9.70;74.50;;;;;;5032581;28;45998;-71
2023/03/31 05:48:18;;;;;;;13.57;6.63;;;9.80;74.10;;;;;;5031751;28;46404;-71
2023/03/31 05:50:44;;;;;;;11.87;6.00;;;10.00;72.50;;;;;;5030684;28;46405;-70
2023/03/31 05:53:10;;;;;;;12.20;6.63;;;10.00;72.40;;;;;;5026780;28;46321;-71
2023/03/31 05:55:36;;;;;;;14.97;6.00;;;10.00;72.50;;;;;;5031893;28;46495;-70
2023/03/31 05:58:02;;;;;;;14.00;7.00;;;10.00;72.60;;;;;;5030315;28;47122;-70
2023/03/31 06:00:28;;;;;;;13.80;6.60;;;10.00;72.90;;;;;;5030528;28;46402;-71
2023/03/31 06:02:53;;;;;;;15.80;6.50;;;9.90;74.20;;;;;;5029917;28;45871;-71
2023/03/31 06:05:19;;;;;;;19.83;6.90;;;10.00;73.50;;;;;;5029568;28;45890;-71
2023/03/31 06:07:44;;;;;;;12.43;6.90;;;9.90;74.50;;;;;;5027393;28;46637;-70
2023/03/31 06:10:10;;;;;;;13.00;7.37;;;10.00;73.40;;;;;;5024565;28;46407;-67
2023/03/31 06:12:36;;;;;;;14.73;5.53;;;10.00;73.00;;;;;;5034135;28;46391;-67
2023/03/31 06:15:02;;;;;;;10.07;6.23;;;10.10;72.90;;;;;;5033019;28;46445;-67
2023/03/31 06:17:28;;;;;;;19.27;8.20;;;10.20;72.60;;;;;;5033712;28;46919;-67
2023/03/31 06:19:54;;;;;;;16.43;6.63;;;10.30;72.30;;;;;;5029981;28;46422;-67
2023/03/31 06:22:20;;;;;;;13.20;6.53;;;10.30;72.10;;;;;;5033653;28;46281;-66
2023/03/31 06:24:45;;;;;;;11.13;6.13;;;10.30;71.70;;;;;;5036050;28;46468;-66
2023/03/31 06:27:11;;;;;;;13.97;5.80;;;10.40;71.50;;;;;;5030492;28;46095;-65
2023/03/31 06:29:37;;;;;;;15.17;7.30;;;10.40;71.30;;;;;;5029084;28;46397;-65
2023/03/31 06:32:03;;;;;;;42.83;19.80;;;10.50;71.00;;;;;;5033177;28;46376;-66
2023/03/31 06:34:29;;;;;;;46.20;19.77;;;10.50;70.60;;;;;;5029734;28;46742;-66
2023/03/31 06:36:55;;;;;;;69.53;33.73;;;10.60;70.50;;;;;;5032785;28;46528;-66
2023/03/31 06:39:21;;;;;;;16.20;6.93;;;10.60;70.40;;;;;;5032644;28;46537;-66
2023/03/31 06:41:46;;;;;;;15.63;6.73;;;10.60;70.30;;;;;;5029910;28;46733;-66
2023/03/31 06:44:15;;;;;;;19.20;7.10;;;10.50;70.60;;;;;;5029877;28;46358;-68
2023/03/31 06:46:41;;;;;;;14.20;7.00;;;10.40;71.00;;;;;;5027885;28;48209;-68
2023/03/31 06:49:07;;;;;;;11.20;6.93;;;10.50;70.90;;;;;;5029358;28;46395;-68
2023/03/31 06:51:32;;;;;;;12.63;6.53;;;10.50;70.80;;;;;;5029750;28;46422;-69
2023/03/31 06:53:58;;;;;;;16.20;6.60;;;10.40;70.80;;;;;;5026928;28;45854;-67
2023/03/31 06:56:25;;;;;;;12.50;6.30;;;10.40;71.10;;;;;;5030977;28;46425;-68
2023/03/31 06:58:50;;;;;;;16.43;7.50;;;10.40;71.10;;;;;;5028825;28;46549;-68
2023/03/31 07:01:16;;;;;;;12.03;6.90;;;10.50;70.90;;;;;;5032959;28;46429;-67
2023/03/31 07:03:41;;;;;;;9.60;6.63;;;10.60;70.50;;;;;;5030162;28;46413;-68
2023/03/31 07:06:07;;;;;;;13.60;5.97;;;10.60;70.30;;;;;;5029049;28;46852;-68
2023/03/31 07:08:33;;;;;;;10.70;5.73;;;10.60;70.50;;;;;;5032403;28;46412;-67
2023/03/31 07:11:00;;;;;;;20.23;6.00;;;10.60;70.50;;;;;;5030661;28;46824;-68
2023/03/31 07:13:26;;;;;;;11.90;6.27;;;10.50;70.50;;;;;;5028920;28;46482;-66
2023/03/31 07:15:52;;;;;;;12.43;6.30;;;10.60;70.60;;;;;;5024604;28;47180;-66
2023/03/31 07:18:18;;;;;;;12.40;6.43;;;10.60;70.60;;;;;;5029161;28;46349;-66
2023/03/31 07:20:48;;;;;;;10.57;6.40;;;10.60;70.70;;;;;;5031688;28;46515;-66
2023/03/31 07:23:13;;;;;;;14.17;5.87;;;10.50;70.80;;;;;;5027107;28;46324;-67
2023/03/31 07:25:39;;;;;;;12.40;6.73;;;10.70;70.60;;;;;;5024567;28;46331;-69
2023/03/31 07:28:05;;;;;;;13.47;6.77;;;11.00;69.80;;;;;;5026137;28;45942;-71
2023/03/31 07:30:31;;;;;;;13.40;6.63;;;11.20;68.80;;;;;;5027599;28;46532;-68
2023/03/31 07:32:57;;;;;;;12.00;6.13;;;11.40;68.40;;;;;;5028087;28;46554;-69
2023/03/31 07:35:23;;;;;;;9.20;5.77;;;11.60;67.80;;;;;;5031113;28;47349;-68
2023/03/31 07:37:50;;;;;;;11.67;6.27;;;11.80;67.40;;;;;;5024980;28;46908;-68
2023/03/31 07:40:25;;;;;;;11.50;6.00;;;11.80;67.00;;;;;;5028639;28;46902;-68
2023/03/31 07:42:51;;;;;;;8.97;4.70;;;11.70;67.20;;;;;;5028885;28;46466;-69
2023/03/31 07:45:18;;;;;;;12.77;5.40;;;11.70;67.50;;;;;;5032632;28;47150;-68
2023/03/31 07:47:45;;;;;;;12.73;6.30;;;11.60;67.60;;;;;;5028274;28;46732;-67
2023/03/31 07:50:11;;;;;;;11.43;5.70;;;11.60;67.90;;;;;;5031153;28;45951;-69
2023/03/31 07:52:38;;;;;;;10.50;5.37;;;11.80;67.60;;;;;;5026533;28;46587;-68
2023/03/31 07:55:04;;;;;;;11.97;5.30;;;12.00;67.20;;;;;;5027492;28;48020;-68
2023/03/31 07:57:30;;;;;;;9.67;5.47;;;12.30;66.50;;;;;;5026890;28;46515;-67
2023/03/31 07:59:56;;;;;;;15.30;5.57;;;12.70;67.00;;;;;;5029619;28;46422;-68
2023/03/31 08:02:22;;;;;;;12.27;5.87;;;12.90;65.80;;;;;;5030275;28;46440;-68
2023/03/31 08:04:47;;;;;;;14.23;5.60;;;13.10;65.20;;;;;;5027920;28;46744;-68
2023/03/31 08:07:15;;;;;;;12.13;5.53;;;13.20;65.00;;;;;;5028014;28;46448;-68
2023/03/31 08:09:44;;;;;;;8.90;4.93;;;13.00;65.00;;;;;;5028816;28;46368;-69
2023/03/31 08:12:09;;;;;;;9.67;5.17;;;13.00;65.30;;;;;;5026353;28;46545;-69
2023/03/31 08:14:35;;;;;;;12.13;5.43;;;12.90;65.30;;;;;;5028638;28;46449;-70
2023/03/31 08:17:01;;;;;;;11.20;5.00;;;12.90;65.20;;;;;;5030663;28;45858;-67
2023/03/31 08:19:26;;;;;;;8.87;5.50;;;12.90;65.00;;;;;;5029641;28;45906;-68
2023/03/31 08:21:52;;;;;;;8.67;4.77;;;12.90;65.10;;;;;;5024818;28;45806;-68
2023/03/31 08:24:18;;;;;;;14.40;7.40;;;12.80;65.20;;;;;;5026487;28;46424;-67
2023/03/31 08:26:44;;;;;;;41.73;25.10;;;12.90;65.20;;;;;;5030223;28;46571;-67
2023/03/31 08:29:10;;;;;;;21.17;12.30;;;13.30;64.50;;;;;;5027993;28;46424;-70
2023/03/31 08:31:36;;;;;;;13.57;5.77;;;13.40;63.90;;;;;;5032305;28;46340;-69
2023/03/31 08:34:02;;;;;;;9.17;4.03;;;13.50;63.40;;;;;;5030293;28;47184;-67
2023/03/31 08:36:28;;;;;;;7.57;3.10;;;13.50;62.40;;;;;;5028374;28;46454;-70
2023/03/31 08:38:54;;;;;;;7.90;2.97;;;13.10;61.30;;;;;;5029652;28;46428;-69
2023/03/31 08:41:38;;;;;;;5.63;3.27;;;12.30;61.60;;;;;;5033766;28;46339;-68
2023/03/31 08:44:12;;;;;;;14.63;3.00;;;11.80;64.70;;;;;;5033698;28;46651;-70
2023/03/31 08:46:39;;;;;;;4.90;3.10;;;12.10;65.90;;;;;;5031452;28;46512;-69
2023/03/31 08:49:05;;;;;;;6.80;3.10;;;12.20;65.40;;;;;;5029962;28;46502;-71
2023/03/31 08:51:44;;;;;;;9.90;4.60;;;12.20;64.60;;;;;;5030091;28;46473;-70
2023/03/31 08:54:25;;;;;;;9.33;3.23;;;12.30;64.60;;;;;;5031568;28;47047;-71
2023/03/31 08:56:51;;;;;;;5.30;2.90;;;12.50;63.70;;;;;;5033035;28;45811;-69
2023/03/31 08:59:29;;;;;;;6.07;2.40;;;12.50;63.40;;;;;;5028570;28;46533;-70
2023/03/31 09:02:03;;;;;;;9.07;2.60;;;12.50;63.00;;;;;;5032559;28;46433;-68
2023/03/31 09:04:32;;;;;;;5.77;2.73;;;12.50;63.20;;;;;;5031272;28;46517;-73
2023/03/31 09:07:28;;;;;;;6.50;2.50;;;12.40;63.20;;;;;;5031372;28;46531;-69
2023/03/31 09:10:11;;;;;;;4.53;2.50;;;12.50;62.90;;;;;;5029758;28;45911;-71
2023/03/31 09:13:06;;;;;;;8.63;4.20;;;12.90;62.30;;;;;;5035786;28;46401;-72
2023/03/31 09:15:58;;;;;;;6.87;2.43;;;13.30;61.40;;;;;;5031187;28;46408;-70
2023/03/31 09:18:34;;;;;;;3.90;2.50;;;13.70;60.00;;;;;;5031956;28;46373;-71
2023/03/31 09:21:12;;;;;;;3.97;2.57;;;14.00;58.80;;;;;;5031538;28;46594;-68
2023/03/31 09:24:01;;;;;;;6.33;2.60;;;14.00;58.30;;;;;;5029924;28;46327;-68
2023/03/31 09:26:32;;;;;;;9.40;2.97;;;14.20;58.10;;;;;;5016675;28;46804;-68
2023/03/31 09:28:59;;;;;;;3.93;2.07;;;14.40;58.20;;;;;;5030542;28;45871;-72
2023/03/31 09:31:26;;;;;;;5.03;2.77;;;14.60;57.40;;;;;;5034428;28;46296;-71
2023/03/31 09:33:58;;;;;;;5.80;2.40;;;14.40;57.70;;;;;;5029814;28;46514;-68
2023/03/31 09:36:24;;;;;;;7.33;3.43;;;14.20;58.20;;;;;;5028990;28;47057;-66
2023/03/31 09:38:50;;;;;;;7.80;4.37;;;14.10;58.80;;;;;;5028989;28;46338;-68
2023/03/31 09:41:17;;;;;;;5.17;2.30;;;14.20;59.00;;;;;;5031671;28;46524;-71
2023/03/31 09:43:45;;;;;;;4.30;2.30;;;14.20;59.30;;;;;;5030703;28;46477;-67
2023/03/31 09:46:36;;;;;;;12.43;2.93;;;14.00;57.90;;;;;;5033934;28;46417;-67
2023/03/31 09:49:16;;;;;;;6.37;2.40;;;13.90;58.70;;;;;;5030731;28;46637;-69
2023/03/31 09:51:46;;;;;;;4.40;2.50;;;13.90;60.00;;;;;;5033127;28;46406;-70
2023/03/31 09:54:23;;;;;;;9.10;2.53;;;14.10;58.40;;;;;;5027826;28;46686;-69
2023/03/31 09:56:52;;;;;;;5.13;2.37;;;14.30;57.80;;;;;;5029971;28;46361;-68
2023/03/31 09:59:28;;;;;;;5.80;2.43;;;14.60;57.40;;;;;;5031611;28;46453;-70
2023/03/31 10:01:58;;;;;;;6.03;2.30;;;14.60;55.10;;;;;;5031018;28;46411;-69
2023/03/31 10:04:27;;;;;;;7.70;2.10;;;14.60;54.20;;;;;;5027967;28;46393;-71
2023/03/31 10:06:54;;;;;;;4.60;2.00;;;14.70;53.80;;;;;;5030274;28;46763;-70
2023/03/31 10:09:32;;;;;;;5.73;2.30;;;14.70;53.00;;;;;;5029348;28;46484;-69
2023/03/31 10:12:30;;;;;;;4.20;2.10;;;14.80;52.70;;;;;;5030321;28;45793;-69
2023/03/31 10:15:17;;;;;;;4.30;1.80;;;14.80;52.00;;;;;;5022315;28;47353;-68
2023/03/31 10:17:44;;;;;;;5.83;2.80;;;15.20;52.00;;;;;;5032413;28;46355;-68
2023/03/31 10:20:32;;;;;;;11.17;2.00;;;15.50;51.70;;;;;;5031530;28;46417;-67
2023/03/31 10:23:03;;;;;;;5.30;1.80;;;15.70;50.60;;;;;;5030044;28;46346;-65
2023/03/31 10:25:29;;;;;;;4.10;1.70;;;16.00;49.40;;;;;;5032616;28;46407;-66
2023/03/31 10:27:56;;;;;;;11.50;2.50;;;16.00;46.70;;;;;;5027875;28;46270;-65
2023/03/31 10:30:24;;;;;;;5.83;2.27;;;16.10;46.10;;;;;;5029662;28;46552;-66
2023/03/31 10:32:51;;;;;;;5.23;2.40;;;16.20;46.10;;;;;;5030856;28;46570;-68
2023/03/31 10:35:25;;;;;;;4.97;2.17;;;16.40;44.30;;;;;;5032413;28;46428;-67
2023/03/31 10:37:56;;;;;;;3.00;1.60;;;15.90;40.60;;;;;;5028606;28;46370;-69
2023/03/31 10:40:28;;;;;;;4.87;2.00;;;15.70;41.60;;;;;;5029818;28;45848;-69
2023/03/31 10:43:04;;;;;;;5.87;2.07;;;15.40;39.10;;;;;;5028849;28;46646;-69
2023/03/31 10:45:55;;;;;;;6.60;2.20;;;15.30;39.10;;;;;;5030686;28;46945;-69
2023/03/31 10:48:32;;;;;;;5.33;1.90;;;15.70;39.40;;;;;;5033429;28;47335;-68
2023/03/31 10:51:05;;;;;;;8.87;2.40;;;16.00;38.00;;;;;;5032297;28;45803;-69
2023/03/31 10:53:40;;;;;;;4.80;2.40;;;16.00;38.40;;;;;;5029257;28;45875;-70
2023/03/31 10:56:09;;;;;;;6.43;2.87;;;15.80;39.20;;;;;;5031754;28;46453;-71
2023/03/31 10:59:12;;;;;;;9.87;3.10;;;15.70;40.00;;;;;;5031759;28;48195;-70
2023/03/31 11:01:57;;;;;;;8.23;2.50;;;15.30;41.00;;;;;;5030157;28;46370;-69
2023/03/31 11:04:22;;;;;;;4.20;1.50;;;14.70;42.70;;;;;;5027452;28;46323;-69
2023/03/31 11:06:56;;;;;;;6.10;1.60;;;14.00;43.50;;;;;;5027986;28;46649;-70
2023/03/31 11:09:54;;;;;;;4.00;1.30;;;13.40;43.50;;;;;;5029822;28;46959;-69
2023/03/31 11:12:45;;;;;;;2.63;1.30;;;13.60;43.30;;;;;;5028974;28;46315;-71
2023/03/31 11:15:20;;;;;;;4.70;1.40;;;14.20;42.00;;;;;;5030555;28;46378;-68
2023/03/31 11:17:51;;;;;;;2.67;1.20;;;14.70;40.50;;;;;;5027293;28;46365;-68
2023/03/31 11:20:53;;;;;;;5.13;1.33;;;15.20;39.30;;;;;;5026840;28;46687;-68
2023/03/31 11:23:41;;;;;;;4.90;1.40;;;15.40;39.10;;;;;;5021266;28;46511;-69
2023/03/31 11:26:42;;;;;;;6.77;1.63;;;15.60;37.40;;;;;;5027184;28;46441;-69
2023/03/31 11:29:32;;;;;;;5.13;1.73;;;15.60;37.60;;;;;;5006293;28;46606;-69
2023/03/31 11:32:11;;;;;;;5.60;2.10;;;15.30;37.90;;;;;;5029006;28;46495;-69
2023/03/31 11:35:13;;;;;;;4.27;2.10;;;15.00;38.50;;;;;;5032683;28;46421;-70
2023/03/31 11:37:53;;;;;;;7.07;2.00;;;14.80;38.70;;;;;;5028186;28;46438;-69
2023/03/31 11:40:40;;;;;;;2.60;1.40;;;14.80;39.10;;;;;;5032245;28;46381;-69
2023/03/31 11:43:09;;;;;;;6.37;1.47;;;14.90;38.60;;;;;;5029808;28;46677;-69
2023/03/31 11:45:43;;;;;;;7.30;1.60;;;15.00;38.80;;;;;;5030459;28;45958;-69
2023/03/31 11:48:31;;;;;;;2.90;1.33;;;14.70;38.80;;;;;;5031189;28;46402;-69
2023/03/31 11:51:00;;;;;;;5.70;1.30;;;14.70;38.80;;;;;;5030511;28;46334;-69
2023/03/31 11:53:31;;;;;;;6.37;1.60;;;14.80;38.10;;;;;;5032512;28;46593;-69
2023/03/31 11:55:58;;;;;;;6.07;1.67;;;14.90;37.70;;;;;;5027785;28;46381;-69
2023/03/31 11:58:38;;;;;;;5.30;1.33;;;15.10;37.70;;;;;;5028266;28;46404;-69
2023/03/31 12:01:18;;;;;;;7.33;1.83;;;15.30;37.20;;;;;;5027110;28;45888;-67
2023/03/31 12:03:55;;;;;;;3.57;1.40;;;15.60;36.80;;;;;;5030342;28;46407;-67
2023/03/31 12:06:26;;;;;;;3.47;1.87;;;16.10;36.50;;;;;;5027798;28;46510;-68
2023/03/31 12:09:10;;;;;;;3.63;1.60;;;16.50;36.00;;;;;;5028571;28;46496;-70
2023/03/31 12:11:51;;;;;;;4.70;1.80;;;16.60;35.70;;;;;;5027366;28;46407;-71
2023/03/31 12:14:34;;;;;;;6.60;2.80;;;16.50;36.10;;;;;;5027457;28;46679;-71
2023/03/31 12:17:10;;;;;;;4.17;1.40;;;16.20;36.90;;;;;;5027360;28;46845;-71
2023/03/31 12:19:42;;;;;;;4.10;1.47;;;15.80;37.30;;;;;;5030284;28;46567;-69
2023/03/31 12:22:38;;;;;;;6.20;1.90;;;15.50;37.70;;;;;;5025471;28;46267;-71
2023/03/31 12:25:04;;;;;;;8.50;2.17;;;15.30;37.40;;;;;;5031091;28;47313;-71
2023/03/31 12:27:43;;;;;;;4.43;1.40;;;15.40;37.00;;;;;;5025428;28;46351;-72
2023/03/31 12:30:36;;;;;;;5.30;2.10;;;15.60;36.60;;;;;;5028276;28;46461;-69
2023/03/31 12:33:27;;;;;;;8.30;2.40;;;15.70;36.10;;;;;;5027023;28;46135;-71
2023/03/31 12:36:11;;;;;;;8.00;2.87;;;15.80;35.90;;;;;;5025791;28;47132;-70
2023/03/31 12:39:07;;;;;;;9.33;1.87;;;15.80;36.20;;;;;;5031176;28;46440;-71
2023/03/31 12:42:00;;;;;;;4.77;1.90;;;15.60;36.30;;;;;;5030125;28;45789;-71
2023/03/31 12:45:05;;;;;;;7.17;2.47;;;15.40;36.50;;;;;;5028162;28;46498;-71
2023/03/31 12:48:02;;;;;;;6.80;1.63;;;15.20;36.60;;;;;;5025148;28;46426;-70
2023/03/31 12:50:36;;;;;;;4.83;1.40;;;14.90;37.10;;;;;;5028730;28;45762;-69
2023/03/31 12:53:32;;;;;;;4.83;1.80;;;14.60;37.60;;;;;;5027279;28;46367;-69
2023/03/31 12:55:58;;;;;;;9.30;1.90;;;14.40;37.70;;;;;;5027630;28;46404;-71
2023/03/31 12:58:30;;;;;;;4.67;2.00;;;14.20;38.00;;;;;;5025716;28;47069;-70
2023/03/31 13:01:05;;;;;;;4.90;1.80;;;13.90;38.10;;;;;;5024970;28;46408;-69
2023/03/31 13:03:36;;;;;;;4.70;1.73;;;13.70;37.90;;;;;;5030971;28;46414;-69
2023/03/31 13:06:04;;;;;;;5.27;1.70;;;13.30;38.50;;;;;;5026303;28;46756;-71
2023/03/31 13:08:49;;;;;;;13.57;2.33;;;13.10;38.80;;;;;;5027374;28;46463;-73
2023/03/31 13:11:16;;;;;;;7.10;1.60;;;13.60;38.00;;;;;;5029298;28;46450;-70